Time;durP1;ratioP1;P1;durP2;ratioP2;P2;SDS_P1;SDS_P2;PMS_P1;PMS_P2;Temp;Humidity;BMP_temperature;BMP_pressure;BME280_temperature;BME280_humidity;BME280_pressure;Samples;Min_cycle;Max_cycle;Signal;HPM_P1;HPM_P2
2022/06/15 00:00:44;;;;;;;9.23;4.75;;;;;;;21.18;100.00;99837.73;1761738;80;20950;-57
2022/06/15 00:03:12;;;;;;;6.73;5.00;;;;;;;21.16;100.00;99836.64;1751419;80;21562;-58
2022/06/15 00:05:42;;;;;;;9.83;4.60;;;;;;;21.12;100.00;99836.38;1778712;80;21355;-56
2022/06/15 00:08:09;;;;;;;7.93;4.80;;;;;;;21.13;100.00;99840.61;1771716;80;21114;-58
2022/06/15 00:10:39;;;;;;;5.70;4.30;;;;;;;21.02;100.00;99836.34;1781831;80;21098;-57
2022/06/15 00:13:08;;;;;;;8.27;4.43;;;;;;;21.05;100.00;99838.48;1772642;80;20991;-58
2022/06/15 00:15:36;;;;;;;7.60;4.63;;;;;;;21.01;100.00;99842.71;1784606;80;21098;-56
2022/06/15 00:18:04;;;;;;;8.57;4.60;;;;;;;20.95;100.00;99846.42;1774195;80;20928;-60
2022/06/15 00:20:32;;;;;;;6.57;4.47;;;;;;;20.83;100.00;99843.98;1772247;80;21567;-58
2022/06/15 00:22:59;;;;;;;8.50;4.20;;;;;;;20.70;100.00;99845.02;1775203;80;22535;-60
2022/06/15 00:25:26;;;;;;;6.70;4.27;;;;;;;20.70;100.00;99845.02;1775227;80;22063;-57
2022/06/15 00:27:54;;;;;;;7.97;4.47;;;;;;;20.75;100.00;99847.67;1778196;80;21034;-58
2022/06/15 00:30:23;;;;;;;9.50;5.37;;;;;;;20.62;100.00;99856.37;1776882;80;20998;-57
2022/06/15 00:32:50;;;;;;;6.90;4.70;;;;;;;20.64;100.00;99855.58;1781656;80;20966;-65
2022/06/15 00:35:19;;;;;;;9.30;4.97;;;;;;;20.54;100.00;99860.05;1768609;80;21246;-58
2022/06/15 00:37:46;;;;;;;9.07;5.40;;;;;;;20.45;100.00;99858.91;1769068;80;21060;-56
2022/06/15 00:40:14;;;;;;;7.00;4.73;;;;;;;20.39;100.00;99860.75;1772614;80;21038;-57
2022/06/15 00:42:41;;;;;;;8.80;5.23;;;;;;;20.39;100.00;99862.07;1769925;80;20967;-64
2022/06/15 00:45:11;;;;;;;6.90;5.17;;;;;;;20.32;100.00;99865.47;1776870;80;21508;-64
2022/06/15 00:47:39;;;;;;;8.13;4.90;;;;;;;20.30;100.00;99868.89;1783266;80;21242;-65
2022/06/15 00:50:19;;;;;;;6.63;4.80;;;;;;;20.24;100.00;99869.41;1774159;80;20919;-65
2022/06/15 00:53:00;;;;;;;7.20;5.00;;;;;;;20.26;100.00;99872.57;1776990;80;20896;-63
2022/06/15 00:55:31;;;;;;;9.40;4.77;;;;;;;20.14;100.00;99870.13;1759647;80;20939;-62
2022/06/15 00:58:01;;;;;;;7.07;5.50;;;;;;;20.10;100.00;99877.51;1777116;80;21461;-64
2022/06/15 01:00:27;;;;;;;6.87;5.20;;;;;;;20.02;100.00;99874.81;1777817;80;21264;-70
2022/06/15 01:02:55;;;;;;;6.37;5.13;;;;;;;19.95;100.00;99868.94;1768092;80;21525;-67
2022/06/15 01:05:50;;;;;;;6.90;5.17;;;;;;;19.84;100.00;99868.59;1754807;81;21009;-65
2022/06/15 01:08:50;;;;;;;6.80;4.63;;;;;;;19.78;100.00;99877.03;1762996;80;20992;-59
2022/06/15 01:11:38;;;;;;;7.57;4.90;;;;;;;19.73;100.00;99872.21;1760525;80;21067;-56
2022/06/15 01:14:25;;;;;;;6.83;4.80;;;;;;;19.75;100.00;99876.73;1739887;81;21144;-56
2022/06/15 01:17:24;;;;;;;7.27;5.30;;;;;;;19.73;100.00;99880.14;1727123;81;20929;-58
2022/06/15 01:20:19;;;;;;;9.37;5.23;;;;;;;19.68;100.00;99883.02;1746518;81;21008;-57
2022/06/15 01:23:11;;;;;;;6.90;5.70;;;;;;;19.72;100.00;99892.58;1754584;81;21048;-58
2022/06/15 01:26:01;;;;;;;7.13;4.83;;;;;;;19.70;100.00;99889.41;1755273;81;21453;-59
2022/06/15 01:28:37;;;;;;;8.80;6.17;;;;;;;19.66;100.00;99889.60;1749622;81;21581;-57
2022/06/15 01:31:33;;;;;;;8.93;5.10;;;;;;;19.61;100.00;99883.72;1751876;80;21055;-57
2022/06/15 01:34:15;;;;;;;7.13;5.33;;;;;;;19.52;100.00;99868.06;1752378;81;21483;-57
2022/06/15 01:37:25;;;;;;;6.67;4.80;;;;;;;19.48;100.00;99872.25;1743992;81;21451;-56
2022/06/15 01:40:00;;;;;;;7.60;5.53;;;;;;;19.42;100.00;99881.17;1758022;81;21004;-56
2022/06/15 01:42:38;;;;;;;6.70;5.43;;;;;;;19.36;100.00;99892.77;1741816;81;21255;-64
2022/06/15 01:45:08;;;;;;;7.07;5.17;;;;;;;19.26;100.00;99895.30;1758182;81;21635;-56
2022/06/15 01:47:36;;;;;;;9.73;5.37;;;;;;;19.23;100.00;99896.58;1751789;80;20976;-57
2022/06/15 01:50:11;;;;;;;10.40;5.47;;;;;;;19.24;100.00;99894.20;1760199;81;21013;-60
2022/06/15 01:52:55;;;;;;;8.90;5.10;;;;;;;19.30;100.00;99896.39;1742800;81;21540;-64
2022/06/15 01:55:33;;;;;;;8.37;5.67;;;;;;;19.24;100.00;99893.41;1757043;81;21231;-64
2022/06/15 01:58:07;;;;;;;7.77;5.90;;;;;;;19.27;100.00;99885.78;1748987;81;21036;-58
2022/06/15 02:00:36;;;;;;;9.40;7.07;;;;;;;19.24;100.00;99896.05;1757442;81;21047;-56
2022/06/15 02:03:46;;;;;;;8.23;5.43;;;;;;;19.30;100.00;99897.19;1744600;80;21056;-57
2022/06/15 02:06:19;;;;;;;7.40;5.50;;;;;;;19.27;100.00;99899.52;1739143;81;22389;-57
2022/06/15 02:09:01;;;;;;;8.23;5.27;;;;;;;19.24;100.00;99902.66;1749989;81;21880;-57
2022/06/15 02:11:33;;;;;;;11.47;5.57;;;;;;;19.35;100.00;99907.80;1688400;84;21516;-57
2022/06/15 02:14:20;;;;;;;7.20;6.10;;;;;;;19.34;100.00;99913.34;1711347;83;22336;-56
2022/06/15 02:17:06;;;;;;;7.40;5.60;;;;;;;19.30;100.00;99916.21;1684610;83;21434;-64
2022/06/15 02:19:39;;;;;;;7.50;6.00;;;;;;;19.30;100.00;99917.53;1764508;81;20959;-57
2022/06/15 02:22:12;;;;;;;9.28;5.62;;;;;;;19.34;100.00;99914.14;1764445;81;21211;-61
2022/06/15 02:24:41;;;;;;;7.80;5.13;;;;;;;19.30;100.00;99916.21;1748460;81;21543;-58
2022/06/15 02:27:08;;;;;;;6.70;5.33;;;;;;;19.36;100.00;99917.34;1750666;81;20964;-58
2022/06/15 02:29:37;;;;;;;6.27;5.20;;;;;;;19.30;100.00;99931.55;1737402;81;21007;-59
2022/06/15 02:32:08;;;;;;;7.60;5.57;;;;;;;19.33;100.00;99930.26;1740050;81;20991;-57
2022/06/15 02:34:37;;;;;;;6.73;5.53;;;;;;;19.46;100.00;99928.53;1752485;81;22433;-57
2022/06/15 02:37:05;;;;;;;7.93;5.63;;;;;;;19.54;100.00;99928.07;1740687;81;20972;-57
2022/06/15 02:39:34;;;;;;;8.43;5.23;;;;;;;19.57;100.00;99928.90;1739908;81;21151;-57
2022/06/15 02:42:24;;;;;;;8.43;5.13;;;;;;;19.75;100.00;99929.10;1756265;81;21046;-63
2022/06/15 02:44:56;;;;;;;7.93;4.83;;;;;;;20.07;100.00;99935.70;1682187;83;21001;-56
2022/06/15 02:47:25;;;;;;;7.27;4.70;;;;;;;20.93;100.00;99928.55;1681533;83;21865;-55
2022/06/15 02:49:52;;;;;;;6.60;5.23;;;;;;;21.65;100.00;99922.38;1743619;81;21004;-61
2022/06/15 02:52:22;;;;;;;7.57;5.00;;;;;;;22.35;100.00;99919.98;1759679;81;21620;-56
2022/06/15 02:54:52;;;;;;;9.03;5.40;;;;;;;23.12;100.00;99925.05;1740985;81;21067;-56
2022/06/15 02:57:21;;;;;;;7.53;4.80;;;;;;;24.12;100.00;99926.47;1740877;81;21051;-55
2022/06/15 02:59:49;;;;;;;8.07;5.33;;;;;;;25.10;100.00;99917.69;1739303;81;21158;-65
2022/06/15 03:02:19;;;;;;;8.00;5.20;;;;;;;26.02;100.00;99916.28;1740364;81;21610;-56
2022/06/15 03:04:47;;;;;;;7.87;6.43;;;;;;;26.97;100.00;99917.95;1706700;81;21443;-56
2022/06/15 03:07:16;;;;;;;8.13;5.77;;;;;;;27.67;100.00;99919.34;1709908;82;21021;-56
2022/06/15 03:09:43;;;;;;;9.65;6.72;;;;;;;28.38;100.00;99915.44;1694498;83;21049;-64
2022/06/15 03:12:10;;;;;;;9.63;6.70;;;;;;;28.68;100.00;99920.47;1707883;83;21739;-58
2022/06/15 03:14:38;;;;;;;9.53;7.00;;;;;;;28.46;100.00;99924.06;1718842;83;20948;-56
2022/06/15 03:17:08;;;;;;;9.07;6.80;;;;;;;28.17;100.00;99931.23;1743206;81;21012;-56
2022/06/15 03:19:50;;;;;;;8.35;5.92;;;;;;;28.22;100.00;99931.09;1718077;83;21339;-64
2022/06/15 03:22:17;;;;;;;7.70;6.42;;;;;;;28.70;100.00;99931.14;1695834;81;21582;-58
2022/06/15 03:24:47;;;;;;;7.78;6.72;;;;;;;29.31;100.00;99929.34;1729976;81;20979;-60
2022/06/15 03:27:17;;;;;;;8.70;6.45;;;;;;;30.67;89.60;99926.16;1740096;81;21538;-57
2022/06/15 03:29:47;;;;;;;8.48;6.45;;;;;;;30.67;89.60;99926.16;1741515;81;21051;-65
2022/06/15 03:32:15;;;;;;;7.03;5.95;;;;;;;31.37;80.02;99929.22;1738253;81;21075;-59
2022/06/15 03:34:47;;;;;;;8.23;6.10;;;;;;;31.84;68.65;99936.44;1748427;81;21554;-59
2022/06/15 03:37:16;;;;;;;7.28;5.37;;;;;;;31.60;68.34;99937.16;1743258;81;21651;-58
2022/06/15 03:39:45;;;;;;;6.72;5.05;;;;;;;31.63;69.63;99949.98;1702367;82;21088;-65
2022/06/15 03:42:17;;;;;;;5.40;4.60;;;;;;;31.66;67.00;99935.81;1719129;83;21507;-58
2022/06/15 03:44:44;;;;;;;4.87;4.20;;;;;;;31.55;67.36;99932.52;1715849;83;21012;-57
2022/06/15 03:47:16;;;;;;;5.40;4.58;;;;;;;31.54;66.37;99933.09;1750421;81;21070;-56
2022/06/15 03:49:42;;;;;;;4.83;4.30;;;;;;;31.36;66.32;99944.56;1758762;81;22345;-62
2022/06/15 03:52:10;;;;;;;5.37;4.65;;;;;;;30.82;68.12;99949.84;1750423;81;21410;-61
2022/06/15 03:54:37;;;;;;;5.62;4.12;;;;;;;30.02;73.92;99956.39;1752226;81;22042;-56
2022/06/15 03:57:05;;;;;;;5.70;4.45;;;;;;;29.29;83.99;99963.00;1745449;81;20989;-56
2022/06/15 03:59:34;;;;;;;6.35;5.15;;;;;;;28.70;94.22;99966.00;1761468;81;20925;-59
2022/06/15 04:02:04;;;;;;;5.33;4.78;;;;;;;28.19;100.00;99970.03;1744371;81;21482;-64
2022/06/15 04:04:34;;;;;;;6.12;4.92;;;;;;;27.74;100.00;99974.61;1752483;81;21023;-56
2022/06/15 04:07:03;;;;;;;6.42;5.17;;;;;;;27.34;100.00;99979.23;1737358;81;21149;-56
2022/06/15 04:09:31;;;;;;;7.08;6.05;;;;;;;27.07;100.00;99981.95;1751220;81;21110;-58
2022/06/15 04:12:08;;;;;;;7.42;5.62;;;;;;;26.92;100.00;99989.19;1757489;81;21047;-57
2022/06/15 04:14:35;;;;;;;5.90;4.85;;;;;;;26.72;100.00;99983.46;1745819;80;21135;-56
2022/06/15 04:17:22;;;;;;;9.78;5.78;;;;;;;26.52;100.00;99989.96;1735228;81;21073;-59
2022/06/15 04:22:44;;;;;;;9.03;4.20;;;;;;;26.48;100.00;99999.66;1753073;81;21059;-57
2022/06/15 04:25:12;;;;;;;6.67;3.65;;;;;;;26.50;100.00;100004.18;1731397;81;21060;-57
2022/06/15 04:27:39;;;;;;;6.65;4.03;;;;;;;26.31;100.00;100010.34;1738368;81;21238;-56
2022/06/15 04:30:10;;;;;;;6.70;3.60;;;;;;;25.98;100.00;100010.09;1753896;80;21287;-58
2022/06/15 04:32:38;;;;;;;;;;;;;;;25.48;100.00;100005.98;1733508;81;21836;-63
2022/06/15 04:35:08;;;;;;;6.63;3.33;;;;;;;24.93;100.00;100003.48;1740863;81;20479;-57
2022/06/15 04:37:41;;;;;;;4.80;2.77;;;;;;;24.57;100.00;100011.05;1743491;81;21047;-56
2022/06/15 04:40:08;;;;;;;5.53;3.00;;;;;;;24.37;100.00;100016.80;1743232;81;21815;-56
2022/06/15 04:42:39;;;;;;;6.63;2.83;;;;;;;24.24;100.00;100019.59;1740636;81;21445;-56
2022/06/15 04:45:09;;;;;;;5.07;3.13;;;;;;;24.04;100.00;100019.19;1744103;81;21510;-56
2022/06/15 04:47:38;;;;;;;;;;;;;;;23.92;100.00;100015.30;1750190;81;21043;-60
2022/06/15 04:50:07;;;;;;;5.03;3.30;;;;;;;23.83;100.00;100008.95;1741274;81;20431;-56
2022/06/15 04:52:39;;;;;;;;;;;;;;;23.77;100.00;100017.53;1755088;81;23357;-62
2022/06/15 04:55:08;;;;;;;6.67;3.27;;;;;;;23.65;100.00;100021.04;1756592;81;20696;-56
2022/06/15 04:57:35;;;;;;;4.97;2.63;;;;;;;23.49;100.00;100019.80;1742357;81;20921;-64
2022/06/15 05:00:09;;;;;;;4.67;2.90;;;;;;;23.36;100.00;100016.39;1754535;81;21803;-58
2022/06/15 05:02:37;;;;;;;3.97;2.20;;;;;;;23.26;100.00;100019.09;1750302;81;21518;-57
2022/06/15 05:05:06;;;;;;;4.53;2.60;;;;;;;23.17;100.00;100020.73;1769572;80;21803;-56
2022/06/15 05:07:35;;;;;;;8.00;2.83;;;;;;;23.18;100.00;100013.01;1740509;81;20984;-63
2022/06/15 05:10:04;;;;;;;5.53;2.77;;;;;;;23.20;100.00;100013.01;1765774;81;21059;-56
2022/06/15 05:12:33;;;;;;;5.07;2.80;;;;;;;23.32;100.00;100014.02;1743911;81;20979;-56
2022/06/15 05:15:01;;;;;;;4.70;2.33;;;;;;;23.45;100.00;100016.09;1750479;81;21075;-57
2022/06/15 05:17:30;;;;;;;6.83;2.70;;;;;;;23.70;100.00;100019.70;1741725;80;21459;-57
2022/06/15 05:19:58;;;;;;;4.60;2.33;;;;;;;24.04;100.00;100024.52;1750798;81;20991;-58
2022/06/15 05:22:27;;;;;;;4.10;2.70;;;;;;;24.50;100.00;100022.82;1760203;81;21124;-57
2022/06/15 05:24:54;;;;;;;3.70;2.73;;;;;;;25.01;100.00;100029.52;1697454;83;20931;-57
2022/06/15 05:27:21;;;;;;;6.23;3.07;;;;;;;25.32;100.00;100033.17;1695277;83;21932;-61
2022/06/15 05:29:48;;;;;;;4.57;3.10;;;;;;;25.66;100.00;100036.98;1713689;83;21669;-56
2022/06/15 05:32:18;;;;;;;5.00;3.53;;;;;;;26.04;100.00;100027.09;1701336;83;20997;-61
2022/06/15 05:34:47;;;;;;;6.33;4.47;;;;;;;26.36;100.00;100027.63;1715616;83;21003;-61
2022/06/15 05:37:17;;;;;;;8.03;5.07;;;;;;;26.59;100.00;100034.48;1762243;81;21037;-57
2022/06/15 05:39:44;;;;;;;12.13;4.80;;;;;;;26.67;100.00;100028.47;1756911;81;21871;-56
2022/06/15 05:42:12;;;;;;;11.88;4.70;;;;;;;26.59;100.00;100039.83;1739938;81;21288;-57
2022/06/15 05:47:10;;;;;;;6.07;3.23;;;;;;;25.54;100.00;100048.09;1746922;81;21052;-58
2022/06/15 05:49:51;;;;;;;6.43;2.70;;;;;;;24.92;100.00;100062.65;1722151;82;21494;-56
2022/06/15 05:52:20;;;;;;;6.30;2.60;;;;;;;24.23;100.00;100056.59;1751966;81;21138;-56
2022/06/15 05:54:47;;;;;;;4.93;2.57;;;;;;;23.79;100.00;100044.67;1747098;81;21128;-58
2022/06/15 05:57:21;;;;;;;5.30;2.87;;;;;;;23.83;100.00;100037.73;1754281;81;20984;-58
2022/06/15 05:59:50;;;;;;;4.50;2.40;;;;;;;24.45;100.00;100037.53;1686841;84;21102;-57
2022/06/15 06:02:19;;;;;;;5.43;2.97;;;;;;;25.23;100.00;100050.36;1739939;81;21020;-58
2022/06/15 06:04:46;;;;;;;5.43;2.80;;;;;;;26.00;100.00;100049.34;1749073;80;21067;-64
2022/06/15 06:07:15;;;;;;;7.35;3.33;;;;;;;26.46;100.00;100067.34;1692522;83;21599;-59
2022/06/15 06:09:42;;;;;;;7.85;3.10;;;;;;;26.63;94.42;100063.55;1711418;83;21455;-58
2022/06/15 06:12:10;;;;;;;6.37;4.47;;;;;;;26.45;92.92;100073.20;1701166;83;21007;-63
2022/06/15 06:14:38;;;;;;;7.83;4.62;;;;;;;26.22;93.65;100076.25;1713202;83;21118;-58
2022/06/15 06:17:06;;;;;;;5.83;4.22;;;;;;;25.94;95.30;100080.66;1752868;81;22165;-59
2022/06/15 06:19:35;;;;;;;6.80;4.47;;;;;;;25.83;99.65;100076.55;1763378;81;20955;-56
2022/06/15 06:22:02;;;;;;;7.30;4.03;;;;;;;25.71;100.00;100081.74;1756694;81;21525;-58
2022/06/15 06:24:31;;;;;;;6.28;3.70;;;;;;;25.38;100.00;100092.87;1743827;81;21051;-58
2022/06/15 06:27:00;;;;;;;5.30;3.40;;;;;;;25.03;100.00;100090.01;1763664;81;20995;-58
2022/06/15 06:29:28;;;;;;;4.87;3.30;;;;;;;24.71;100.00;100087.95;1753613;80;21122;-59
2022/06/15 06:31:58;;;;;;;4.73;3.03;;;;;;;24.46;100.00;100084.95;1739478;81;21287;-57
2022/06/15 06:34:29;;;;;;;7.35;3.02;;;;;;;24.31;100.00;100096.49;1740176;81;20986;-57
2022/06/15 06:36:56;;;;;;;7.97;3.40;;;;;;;24.39;100.00;100098.59;1763742;80;21596;-64
2022/06/15 06:39:25;;;;;;;4.27;3.20;;;;;;;24.58;100.00;100094.70;1733438;81;21077;-63
2022/06/15 06:41:54;;;;;;;5.25;3.33;;;;;;;24.78;100.00;100096.95;1738573;80;27364;-57
2022/06/15 06:44:21;;;;;;;4.93;3.20;;;;;;;25.05;100.00;100089.75;1754307;81;21105;-57
2022/06/15 06:46:50;;;;;;;5.13;3.17;;;;;;;25.35;100.00;100094.77;1765339;80;21530;-63
2022/06/15 06:49:17;;;;;;;3.80;2.70;;;;;;;25.71;100.00;100100.98;1749056;81;21362;-55
2022/06/15 06:51:45;;;;;;;4.10;2.70;;;;;;;25.93;100.00;100093.77;1743814;81;21474;-56
2022/06/15 06:54:14;;;;;;;6.10;3.10;;;;;;;25.93;100.00;100095.89;1759610;80;20999;-56
2022/06/15 06:56:41;;;;;;;7.17;3.20;;;;;;;25.87;100.00;100097.03;1763965;81;21173;-65
2022/06/15 06:59:09;;;;;;;6.20;3.30;;;;;;;25.49;100.00;100102.85;1742809;80;22197;-60
2022/06/15 07:01:37;;;;;;;6.47;3.43;;;;;;;25.29;100.00;100097.22;1762536;81;21042;-61
2022/06/15 07:04:05;;;;;;;5.03;3.10;;;;;;;25.23;100.00;100102.38;1762842;80;20994;-59
2022/06/15 07:06:33;;;;;;;4.87;3.27;;;;;;;25.11;100.00;100109.42;1749321;81;21118;-60
2022/06/15 07:09:01;;;;;;;5.07;3.47;;;;;;;25.06;100.00;100112.66;1751512;80;22106;-57
2022/06/15 07:11:29;;;;;;;6.13;3.10;;;;;;;25.15;100.00;100113.65;1748238;81;21341;-57
2022/06/15 07:13:56;;;;;;;4.30;3.10;;;;;;;25.19;100.00;100112.83;1689365;84;21123;-60
2022/06/15 07:16:25;;;;;;;4.53;3.43;;;;;;;25.10;100.00;100119.05;1689822;84;21111;-57
2022/06/15 07:18:53;;;;;;;5.87;3.63;;;;;;;25.04;100.00;100119.63;1702272;83;21036;-58
2022/06/15 07:21:24;;;;;;;4.47;3.40;;;;;;;25.08;100.00;100126.49;1706268;82;21274;-58
2022/06/15 07:23:55;;;;;;;7.08;3.72;;;;;;;25.18;100.00;100135.77;1703968;83;21526;-60
2022/06/15 07:26:28;;;;;;;5.20;3.47;;;;;;;25.28;100.00;100134.33;1701053;83;21420;-59
2022/06/15 07:28:57;;;;;;;5.57;3.40;;;;;;;25.31;100.00;100132.44;1710540;83;21871;-58
2022/06/15 07:31:31;;;;;;;3.93;3.33;;;;;;;25.24;100.00;100131.98;1699645;83;21082;-59
2022/06/15 07:33:58;;;;;;;6.33;3.80;;;;;;;24.95;100.00;100125.30;1720664;83;21144;-61
2022/06/15 07:36:27;;;;;;;7.27;3.30;;;;;;;24.63;100.00;100126.66;1764513;81;21013;-57
2022/06/15 07:38:56;;;;;;;7.87;3.07;;;;;;;24.40;100.00;100127.38;1742533;81;21040;-57
2022/06/15 07:41:24;;;;;;;5.83;2.80;;;;;;;24.18;100.00;100121.11;1739024;81;21005;-57
2022/06/15 07:43:52;;;;;;;8.07;3.73;;;;;;;24.06;100.00;100125.44;1748978;81;20996;-65
2022/06/15 07:46:19;;;;;;;4.80;3.27;;;;;;;23.91;100.00;100128.98;1714569;83;23140;-57
2022/06/15 07:51:38;;;;;;;5.10;3.33;;;;;;;23.70;100.00;100120.29;1753400;81;21008;-61
2022/06/15 07:54:11;;;;;;;5.30;3.10;;;;;;;23.39;100.00;100124.12;1743083;80;21457;-58
2022/06/15 07:56:39;;;;;;;9.57;3.80;;;;;;;23.07;100.00;100118.63;1753530;80;20981;-60
2022/06/15 07:59:06;;;;;;;6.07;4.00;;;;;;;22.67;100.00;100117.56;1732921;81;21625;-59
2022/06/15 08:01:34;;;;;;;7.20;3.97;;;;;;;22.23;100.00;100115.94;1749339;81;21007;-67
2022/06/15 08:04:01;;;;;;;5.50;3.97;;;;;;;21.89;100.00;100130.95;1764149;80;21083;-58
2022/06/15 08:06:30;;;;;;;8.33;3.37;;;;;;;21.69;100.00;100126.92;1761795;80;20985;-59
2022/06/15 08:08:58;;;;;;;5.57;3.03;;;;;;;21.64;100.00;100130.88;1747202;81;20967;-60
2022/06/15 08:11:26;;;;;;;4.97;3.80;;;;;;;21.67;100.00;100132.49;1736024;81;21133;-63
2022/06/15 08:13:55;;;;;;;5.50;3.63;;;;;;;21.77;100.00;100120.57;1689698;84;21029;-60
2022/06/15 08:16:22;;;;;;;5.80;3.60;;;;;;;21.89;100.00;100114.23;1700962;83;21083;-58
2022/06/15 08:18:58;;;;;;;7.27;3.60;;;;;;;22.05;100.00;100115.36;1758063;81;20993;-58
2022/06/15 08:21:28;;;;;;;5.30;3.27;;;;;;;22.24;100.00;100103.74;1747660;81;20968;-59
2022/06/15 08:23:57;;;;;;;4.77;3.23;;;;;;;22.38;100.00;100103.20;1743474;81;22988;-58
2022/06/15 08:26:29;;;;;;;6.20;3.30;;;;;;;22.56;100.00;100094.18;1746696;81;21039;-58
2022/06/15 08:28:59;;;;;;;5.07;3.03;;;;;;;22.66;100.00;100088.08;1762921;81;21044;-59
2022/06/15 08:31:26;;;;;;;6.63;3.17;;;;;;;22.75;100.00;100091.78;1743583;81;21088;-59
2022/06/15 08:33:54;;;;;;;3.43;2.83;;;;;;;22.91;100.00;100089.09;1741911;81;21287;-59
2022/06/15 08:36:22;;;;;;;6.13;3.10;;;;;;;22.91;100.00;100096.56;1761367;81;21715;-59
2022/06/15 08:38:49;;;;;;;4.20;2.83;;;;;;;22.68;100.00;100093.91;1755923;81;21074;-58
2022/06/15 08:41:37;;;;;;;4.47;3.17;;;;;;;22.50;100.00;100095.27;1738651;81;21009;-60
2022/06/15 08:44:37;;;;;;;5.83;3.30;;;;;;;22.38;100.00;100096.56;1738839;81;21384;-58
2022/06/15 08:47:35;;;;;;;8.13;3.43;;;;;;;22.48;100.00;100100.03;1750018;81;20984;-58
2022/06/15 08:50:08;;;;;;;6.03;3.27;;;;;;;22.63;100.00;100093.12;1739956;81;21315;-57
2022/06/15 08:52:59;;;;;;;3.20;2.63;;;;;;;22.78;100.00;100095.77;1743552;81;21511;-62
2022/06/15 08:55:49;;;;;;;6.42;3.40;;;;;;;22.78;100.00;100102.41;1686626;83;21058;-57
2022/06/15 08:58:35;;;;;;;4.47;3.43;;;;;;;22.83;100.00;100103.73;1698532;83;21049;-57
2022/06/15 09:01:10;;;;;;;3.80;3.10;;;;;;;23.06;100.00;100099.19;1747758;81;21044;-57
2022/06/15 09:03:55;;;;;;;4.73;3.77;;;;;;;23.07;100.00;100107.98;1753493;81;21692;-64
2022/06/15 09:06:40;;;;;;;5.83;3.57;;;;;;;23.24;100.00;100110.33;1750065;80;21539;-57
2022/06/15 09:09:27;;;;;;;4.83;3.83;;;;;;;23.42;100.00;100110.28;1759217;80;20897;-58
2022/06/15 09:15:31;;;;;;;5.27;4.40;;;;;;;23.52;100.00;100112.38;1768617;80;21051;-57
2022/06/15 09:18:06;;;;;;;4.73;3.60;;;;;;;23.44;100.00;100116.11;1758604;80;21215;-56
2022/06/15 09:20:38;;;;;;;6.27;4.20;;;;;;;23.52;100.00;100111.05;1759266;80;21624;-59
2022/06/15 09:23:19;;;;;;;5.70;4.10;;;;;;;23.75;100.00;100119.46;1749072;80;20981;-57
2022/06/15 09:25:53;;;;;;;6.08;4.45;;;;;;;23.88;100.00;100120.20;1754506;80;21082;-66
2022/06/15 09:28:28;;;;;;;7.13;4.83;;;;;;;24.04;100.00;100125.70;1765538;80;21118;-60
2022/06/15 09:31:03;;;;;;;5.93;5.17;;;;;;;24.10;100.00;100119.82;1761001;80;21553;-59
2022/06/15 09:33:44;;;;;;;8.73;5.40;;;;;;;24.22;100.00;100114.15;1709875;82;21619;-58
2022/06/15 09:36:24;;;;;;;5.40;4.87;;;;;;;24.35;100.00;100114.84;1701959;84;21873;-59
2022/06/15 09:38:51;;;;;;;7.57;6.20;;;;;;;24.54;100.00;100116.87;1753449;81;21001;-59
2022/06/15 09:41:30;;;;;;;7.97;7.00;;;;;;;24.76;100.00;100118.00;1751894;81;21557;-62
2022/06/15 09:44:40;;;;;;;10.30;8.87;;;;;;;24.85;100.00;100114.72;1750983;81;21918;-58
2022/06/15 09:47:18;;;;;;;10.07;9.07;;;;;;;24.93;100.00;100113.59;1694112;84;20971;-56
2022/06/15 09:49:58;;;;;;;8.83;7.40;;;;;;;25.29;100.00;100111.90;1684435;84;22066;-56
2022/06/15 09:52:48;;;;;;;9.73;7.30;;;;;;;25.82;100.00;100109.13;1715950;81;21039;-58
2022/06/15 09:55:33;;;;;;;10.27;7.70;;;;;;;26.24;100.00;100110.13;1742468;81;21039;-57
2022/06/15 09:58:01;;;;;;;7.63;6.67;;;;;;;26.23;100.00;100104.55;1772900;80;22127;-56
2022/06/15 10:00:28;;;;;;;8.33;6.30;;;;;;;26.04;100.00;100106.44;1749300;80;21041;-58
2022/06/15 10:03:03;;;;;;;7.73;5.43;;;;;;;25.76;100.00;100105.45;1763752;80;21061;-57
2022/06/15 10:05:34;;;;;;;6.37;4.93;;;;;;;25.74;100.00;100104.41;1743758;80;20934;-65
2022/06/15 10:08:06;;;;;;;6.17;5.57;;;;;;;25.70;100.00;100094.05;1768304;80;21376;-57
2022/06/15 10:10:37;;;;;;;9.23;7.53;;;;;;;25.68;100.00;100094.36;1765600;80;21301;-57
2022/06/15 10:13:18;;;;;;;6.53;5.80;;;;;;;25.65;100.00;100092.80;1765531;80;21046;-58
2022/06/15 10:15:52;;;;;;;7.37;5.22;;;;;;;25.66;100.00;100091.16;1757366;80;21984;-57
2022/06/15 10:18:33;;;;;;;5.57;4.13;;;;;;;25.84;100.00;100098.97;1769011;80;21515;-57
2022/06/15 10:21:17;;;;;;;6.50;4.27;;;;;;;25.99;100.00;100109.16;1750200;80;21090;-60
2022/06/15 10:24:26;;;;;;;4.78;3.62;;;;;;;26.08;100.00;100117.59;1754932;80;21262;-57
2022/06/15 10:27:18;;;;;;;4.72;4.10;;;;;;;26.36;100.00;100123.05;1757005;80;21408;-57
2022/06/15 10:30:05;;;;;;;4.73;3.43;;;;;;;26.36;100.00;100119.03;1760333;80;21078;-60
2022/06/15 10:32:32;;;;;;;4.47;3.47;;;;;;;26.02;100.00;100128.63;1733538;80;21469;-57
2022/06/15 10:35:08;;;;;;;4.70;3.67;;;;;;;25.72;100.00;100133.26;1766207;80;21037;-59
2022/06/15 10:37:56;;;;;;;5.03;4.40;;;;;;;25.42;100.00;100120.56;1767197;80;21320;-64
2022/06/15 10:40:35;;;;;;;4.97;4.40;;;;;;;25.20;100.00;100121.62;1760227;80;21108;-57
2022/06/15 10:43:16;;;;;;;5.13;4.63;;;;;;;24.96;100.00;100130.37;1756797;80;21056;-64
2022/06/15 10:46:02;;;;;;;5.60;4.92;;;;;;;24.90;100.00;100125.36;1757811;80;21030;-56
2022/06/15 10:48:46;;;;;;;6.33;5.40;;;;;;;24.92;100.00;100131.98;1750381;80;21036;-63
2022/06/15 10:51:19;;;;;;;8.00;6.97;;;;;;;24.82;100.00;100143.30;1727063;80;21363;-58
2022/06/15 10:53:51;;;;;;;10.40;9.40;;;;;;;24.47;100.00;100148.64;1767843;80;21501;-62
2022/06/15 11:02:39;;;;;;;13.37;12.07;;;;;;;23.17;100.00;100143.84;1773539;80;20998;-56
2022/06/15 11:05:14;;;;;;;11.90;10.90;;;;;;;22.81;100.00;100152.37;1771945;80;21697;-55
2022/06/15 11:08:01;;;;;;;12.07;10.87;;;;;;;22.46;100.00;100152.61;1754684;80;21038;-57
2022/06/15 11:10:40;;;;;;;13.17;11.97;;;;;;;22.21;100.00;100157.36;1753835;81;20952;-56
2022/06/15 11:13:36;;;;;;;13.23;12.03;;;;;;;22.08;100.00;100161.27;1761008;81;21411;-56
2022/06/15 11:19:14;;;;;;;12.20;11.03;;;;;;;22.17;100.00;100166.13;1757555;81;21229;-64
2022/06/15 11:21:57;;;;;;;11.33;9.33;;;;;;;22.01;100.00;100156.76;1743811;81;21083;-63
2022/06/15 11:24:45;;;;;;;7.97;7.17;;;;;;;21.98;100.00;100161.26;1737079;81;21085;-55
2022/06/15 11:27:26;;;;;;;7.93;5.83;;;;;;;21.83;100.00;100159.88;1734915;81;21457;-62
2022/06/15 11:30:34;;;;;;;5.65;4.83;;;;;;;21.66;100.00;100155.28;1743004;81;20968;-58
2022/06/15 11:33:09;;;;;;;4.83;4.33;;;;;;;21.54;100.00;100163.45;1753957;81;21638;-56
2022/06/15 11:36:07;;;;;;;5.67;4.33;;;;;;;21.48;100.00;100149.88;1737375;81;21496;-56
2022/06/15 11:38:55;;;;;;;5.03;3.90;;;;;;;21.25;100.00;100151.05;1708553;81;21097;-56
2022/06/15 11:41:39;;;;;;;5.00;3.93;;;;;;;21.33;100.00;100140.02;1757967;81;21040;-56
2022/06/15 11:44:13;;;;;;;7.03;5.07;;;;;;;21.21;100.00;100138.04;1676101;84;21516;-57
2022/06/15 11:47:22;;;;;;;7.17;5.47;;;;;;;21.13;100.00;100133.48;1708899;82;21153;-58
2022/06/15 11:50:19;;;;;;;9.33;7.03;;;;;;;21.13;100.00;100130.84;1710448;83;20960;-56
2022/06/15 11:53:19;;;;;;;11.03;9.80;;;;;;;21.11;100.00;100132.16;1701610;83;21542;-56
2022/06/15 11:56:12;;;;;;;11.50;9.65;;;;;;;21.22;100.00;100115.80;1702212;83;21822;-56
2022/06/15 11:59:07;;;;;;;9.93;8.27;;;;;;;21.06;100.00;100122.34;1695621;83;21011;-56
2022/06/15 12:01:53;;;;;;;9.03;5.93;;;;;;;20.93;100.00;100118.79;1745644;81;20970;-57
2022/06/15 12:05:01;;;;;;;6.03;5.27;;;;;;;20.85;100.00;100124.03;1743879;81;21025;-63
2022/06/15 12:07:41;;;;;;;6.63;5.90;;;;;;;20.68;100.00;100131.84;1752001;80;20983;-56
2022/06/15 12:10:40;;;;;;;9.23;8.20;;;;;;;20.56;100.00;100120.09;1759818;80;21595;-56
2022/06/15 12:13:41;;;;;;;13.50;12.10;;;;;;;20.64;100.00;100123.06;1743766;80;21504;-60
2022/06/15 12:16:17;;;;;;;13.17;11.97;;;;;;;20.53;100.00;100123.23;1762237;80;21436;-56